Disclaimer

Please do not use the information listed here in-flight or in-navigation, as they are not provided to us by the airports but are provided by volunteers, so they might be outdated.

Search


Regions


Airport information page

Radio informations:
Automatic Terminal Information Service (ATIS) - 132.35 MHz
GRAND CAYMAN APP - 120.2 MHz

Airport informations:
Latitude: 19° 17' 34.00" N
Longitude: 081° 21' 27.90" W
Elevation: 8 feet - 2 meters
Operating hours: Remarks
Operating agency: Civil government, landing fees and diplomatic clearance may be required
Timezone: UTC-5
Fuel: Jet A, without icing inhibitor.

100/130 MIL Spec, low lead, aviation gasoline (BLUE)

Runway information:
08/26 - 7021 x 148 feet< - >2140 x 45 meters

Recent METARs:
MWCR 131900Z 13009KT 9999 FEW016 31/26 Q1013
MWCR 132000Z 13009KT 9999 FEW018 31/26 Q1013
MWCR 132000Z 13009KT 9999 FEW018 31/26 Q1013

Airport on the map: